Time;durP1;ratioP1;P1;durP2;ratioP2;P2;SDS_P1;SDS_P2;PMS_P1;PMS_P2;Temp;Humidity;BMP_temperature;BMP_pressure;BME280_temperature;BME280_humidity;BME280_pressure;Samples;Min_cycle;Max_cycle;Signal;HPM_P1;HPM_P2
2023/07/18 07:01:24;;;;;;;0.35;0.28;;;21.30;99.90;24.90;101925.00;;;;6289881;22;1324306;-65
2023/07/18 07:03:55;;;;;;;0.10;0.10;;;22.40;99.90;24.20;101916.00;;;;6309481;22;20433;-64
2023/07/18 07:06:26;;;;;;;0.10;0.10;;;22.00;99.90;29.20;101940.00;;;;6283194;22;20136;-65
2023/07/18 07:08:52;;;;;;;0.10;0.10;;;24.60;99.90;23.40;101973.00;;;;6282108;22;20156;-64
2023/07/18 07:11:32;;;;;;;2.40;0.85;;;22.60;99.90;26.50;101957.00;;;;6282392;22;20450;-65
2023/07/18 07:14:06;;;;;;;0.75;0.75;;;23.70;99.90;26.20;101928.00;;;;6309355;22;20147;-65
2023/07/18 07:16:41;;;;;;;1.98;0.60;;;23.40;99.90;24.90;101970.00;;;;6309586;22;20132;-65
2023/07/18 07:19:14;;;;;;;0.10;0.10;;;23.10;99.90;25.10;101951.00;;;;6281678;22;20526;-65
2023/07/18 07:21:40;;;;;;;0.93;0.63;;;22.80;99.90;24.50;101963.00;;;;6309198;22;20565;-65
2023/07/18 07:24:06;;;;;;;0.20;0.20;;;22.60;99.90;23.10;101924.00;;;;6282364;22;20190;-65
2023/07/18 07:26:40;;;;;;;0.10;0.10;;;21.70;99.90;23.10;101893.00;;;;6282332;22;20206;-65
2023/07/18 07:29:14;;;;;;;0.20;0.20;;;21.20;99.90;23.20;101908.00;;;;6309398;22;20144;-64
2023/07/18 07:31:41;;;;;;;0.22;0.22;;;21.50;99.90;22.00;101849.00;;;;6281648;22;20534;-65
2023/07/18 07:34:10;;;;;;;0.13;0.13;;;20.70;99.90;23.10;101894.00;;;;6281833;22;20168;-64
2023/07/18 07:36:38;;;;;;;0.30;0.30;;;21.10;99.90;23.00;101901.00;;;;6309363;22;20147;-64
2023/07/18 07:39:07;;;;;;;0.85;0.63;;;21.30;99.90;23.60;101893.00;;;;6309229;22;20172;-64
2023/07/18 07:41:33;;;;;;;1.27;0.73;;;21.40;99.90;24.20;101917.00;;;;6309187;22;20179;-64
2023/07/18 07:43:59;;;;;;;1.05;1.05;;;22.00;99.90;25.30;101903.00;;;;6309100;22;20140;-64
2023/07/18 07:46:24;;;;;;;0.38;0.38;;;22.50;99.90;26.40;101935.00;;;;6282145;22;20145;-65
2023/07/18 07:49:00;;;;;;;0.10;0.10;;;23.50;99.90;26.50;101935.00;;;;6308400;22;20446;-64
2023/07/18 07:51:34;;;;;;;0.10;0.10;;;23.50;99.90;29.80;101898.00;;;;6307860;22;20152;-65
2023/07/18 07:54:00;;;;;;;4.22;0.55;;;25.60;99.90;28.40;101898.00;;;;6307606;22;20155;-63
2023/07/18 07:56:34;;;;;;;0.10;0.10;;;26.20;99.90;27.50;101914.00;;;;6308785;22;20164;-65
2023/07/18 07:59:11;;;;;;;0.17;0.17;;;25.00;99.90;26.60;101929.00;;;;6280199;22;20136;-65
2023/07/18 08:01:48;;;;;;;0.10;0.10;;;25.00;99.90;27.70;101908.00;;;;6306393;22;20620;-65
2023/07/18 08:04:26;;;;;;;1.52;0.63;;;24.60;99.90;30.70;101870.00;;;;6306893;22;20140;-66
2023/07/18 08:07:01;;;;;;;0.10;0.10;;;26.70;99.90;25.20;101924.00;;;;6307743;22;20132;-65
2023/07/18 08:09:34;;;;;;;0.10;0.10;;;24.20;99.90;24.10;101957.00;;;;6305346;22;20166;-66
2023/07/18 08:12:10;;;;;;;0.30;0.30;;;22.90;99.90;25.90;101937.00;;;;6281515;22;20167;-65
2023/07/18 08:14:44;;;;;;;0.10;0.10;;;22.70;99.90;29.70;101908.00;;;;6281905;22;20136;-66
2023/07/18 08:17:27;;;;;;;0.10;0.10;;;25.20;99.90;30.70;101880.00;;;;6281279;22;20140;-66
2023/07/18 08:20:08;;;;;;;0.00;0.00;;;27.00;99.90;31.90;101873.00;;;;6281548;22;20581;-65
2023/07/18 08:22:46;;;;;;;0.10;0.10;;;28.70;99.90;30.40;101887.00;;;;6282435;22;20496;-64
2023/07/18 08:25:23;;;;;;;2.75;0.60;;;27.70;99.90;32.00;101862.00;;;;6281639;22;20187;-64
2023/07/18 08:27:55;;;;;;;0.10;0.10;;;28.20;99.90;25.60;101947.00;;;;6280992;22;20195;-64
2023/07/18 08:30:23;;;;;;;0.10;0.10;;;25.30;99.90;24.40;101962.00;;;;6256764;22;20530;-64
2023/07/18 08:32:56;;;;;;;0.10;0.10;;;23.50;99.90;23.70;101973.00;;;;6281325;22;20145;-63
2023/07/18 08:35:25;;;;;;;0.10;0.10;;;22.30;99.90;25.60;101947.00;;;;6280950;22;20198;-63
2023/07/18 08:37:57;;;;;;;0.10;0.10;;;22.60;99.90;25.40;101941.00;;;;6308655;22;20194;-64
2023/07/18 08:40:48;;;;;;;0.10;0.10;;;23.40;99.90;26.20;101924.00;;;;6308759;22;20141;-64
2023/07/18 08:43:20;;;;;;;0.10;0.10;;;23.10;99.90;26.10;101925.00;;;;6308221;22;20172;-64
2023/07/18 08:45:57;;;;;;;0.20;0.20;;;23.60;99.90;28.30;101892.00;;;;6281793;22;20157;-64
2023/07/18 08:48:23;;;;;;;0.10;0.10;;;24.90;99.90;26.70;101907.00;;;;6281032;22;20155;-63
2023/07/18 08:50:54;;;;;;;0.57;0.50;;;24.60;99.90;26.10;101907.00;;;;6281476;22;20148;-63
2023/07/18 08:53:23;;;;;;;0.10;0.10;;;24.00;99.90;26.50;101913.00;;;;6281634;22;20155;-64
2023/07/18 08:55:50;;;;;;;1.05;0.45;;;24.00;99.90;26.00;101921.00;;;;6281023;22;20145;-63
2023/07/18 08:58:18;;;;;;;0.10;0.10;;;23.50;99.90;24.90;101938.00;;;;6281524;22;20168;-63
2023/07/18 09:00:44;;;;;;;0.10;0.10;;;22.90;99.90;25.10;101938.00;;;;6307973;22;20251;-62
2023/07/18 09:03:39;;;;;;;0.22;0.22;;;22.40;99.90;27.30;101902.00;;;;6281160;22;20200;-63
2023/07/18 09:06:29;;;;;;;0.10;0.10;;;23.80;99.90;27.90;101879.00;;;;6280688;22;20172;-63
2023/07/18 09:09:28;;;;;;;1.95;0.55;;;24.70;99.90;25.90;101913.00;;;;6308813;22;20175;-63
2023/07/18 09:12:03;;;;;;;0.10;0.10;;;24.00;99.90;25.90;101909.00;;;;6307550;22;20160;-63
2023/07/18 09:14:34;;;;;;;0.10;0.10;;;23.90;99.90;24.80;101924.00;;;;6280750;22;20156;-63
2023/07/18 09:17:04;;;;;;;0.10;0.10;;;23.00;99.90;29.10;101870.00;;;;6307376;22;20145;-63
2023/07/18 09:19:39;;;;;;;0.47;0.25;;;24.70;99.90;27.20;101861.00;;;;6281040;22;20176;-63
2023/07/18 09:22:14;;;;;;;0.28;0.28;;;25.30;99.90;28.00;101852.00;;;;6280819;22;20167;-63
2023/07/18 09:24:42;;;;;;;0.10;0.10;;;25.80;99.90;29.40;101823.00;;;;6308219;22;20170;-63
2023/07/18 09:27:15;;;;;;;0.45;0.45;;;26.00;99.90;27.50;101847.00;;;;6307785;22;20176;-63
2023/07/18 09:29:46;;;;;;;0.10;0.10;;;25.70;99.90;28.00;101813.00;;;;6307852;22;20144;-63
2023/07/18 09:32:17;;;;;;;0.20;0.20;;;25.40;99.90;27.50;101842.00;;;;6280624;22;20544;-63
2023/07/18 09:35:01;;;;;;;0.10;0.10;;;25.10;99.90;25.40;101834.00;;;;6308192;22;20159;-63
2023/07/18 09:37:45;;;;;;;0.10;0.10;;;23.80;99.90;24.90;101865.00;;;;6280120;22;20160;-63
2023/07/18 09:40:17;;;;;;;0.28;0.28;;;23.00;99.90;25.90;101869.00;;;;6308208;22;20145;-63
2023/07/18 09:42:52;;;;;;;0.10;0.10;;;23.00;99.90;25.50;101878.00;;;;6280044;22;20180;-63
2023/07/18 09:45:20;;;;;;;1.98;1.17;;;22.90;99.90;25.80;101858.00;;;;6280666;22;20544;-63
2023/07/18 09:47:46;;;;;;;0.10;0.10;;;22.90;99.90;26.20;101831.00;;;;6307772;22;20149;-63
2023/07/18 09:50:17;;;;;;;0.10;0.10;;;23.30;99.90;28.20;101827.00;;;;6307995;22;20581;-63
2023/07/18 09:52:51;;;;;;;0.10;0.10;;;24.20;99.90;30.20;101801.00;;;;6307618;22;20168;-63
2023/07/18 09:55:38;;;;;;;0.10;0.10;;;25.90;99.90;29.80;101803.00;;;;6281226;22;20164;-63
2023/07/18 09:58:07;;;;;;;0.35;0.35;;;26.90;99.90;29.50;101808.00;;;;6255074;22;20521;-63
2023/07/18 10:00:35;;;;;;;0.10;0.10;;;26.60;99.90;28.20;101827.00;;;;6280422;22;20141;-63
2023/07/18 10:03:06;;;;;;;1.02;0.30;;;25.60;99.90;29.80;101818.00;;;;6280910;22;20188;-63
2023/07/18 10:05:35;;;;;;;0.10;0.10;;;26.60;99.90;29.70;101803.00;;;;6307923;22;20231;-63
2023/07/18 10:08:07;;;;;;;0.28;0.28;;;26.80;99.90;25.90;101828.00;;;;6280839;22;20603;-63
2023/07/18 10:11:07;;;;;;;0.10;0.10;;;25.40;99.90;26.40;101849.00;;;;6307736;22;20152;-63
2023/07/18 10:13:43;;;;;;;0.10;0.10;;;24.40;99.90;26.40;101859.00;;;;6281652;22;20227;-63
2023/07/18 10:16:12;;;;;;;0.25;0.25;;;24.40;99.90;25.60;101869.00;;;;6280405;22;20166;-63
2023/07/18 10:18:51;;;;;;;0.10;0.10;;;23.80;99.90;27.60;101848.00;;;;6306713;22;20136;-63
2023/07/18 10:33:29;;;;;;;0.10;0.10;;;26.80;99.90;28.40;101828.00;;;;5070135;28;20661;-65
2023/07/18 10:35:57;;;;;;;0.10;0.10;;;25.80;99.90;31.20;101812.00;;;;5033001;28;20551;-65
2023/07/18 10:38:35;;;;;;;0.30;0.30;;;27.40;99.90;30.10;101805.00;;;;5050331;28;20197;-64
2023/07/18 10:41:01;;;;;;;0.10;0.10;;;27.40;99.90;31.50;101797.00;;;;5050251;28;20182;-65
2023/07/18 10:43:54;;;;;;;0.55;0.55;;;28.30;99.90;29.30;101829.00;;;;5050307;28;20273;-62
2023/07/18 10:46:36;;;;;;;0.10;0.10;;;27.00;99.90;31.90;101821.00;;;;5044073;28;20666;-63
2023/07/18 10:49:08;;;;;;;0.32;0.32;;;28.40;99.90;29.00;101851.00;;;;5048852;28;20523;-62
2023/07/18 10:51:46;;;;;;;0.10;0.10;;;27.50;99.50;27.10;101875.00;;;;5049593;28;20267;-62
2023/07/18 10:54:26;;;;;;;0.10;0.10;;;25.80;99.90;28.80;101842.00;;;;5049984;28;20228;-62
2023/07/18 10:56:52;;;;;;;0.10;0.10;;;25.80;99.90;29.60;101834.00;;;;5040617;28;20218;-63
2023/07/18 10:59:23;;;;;;;0.10;0.10;;;27.00;99.90;32.90;101807.00;;;;5048740;28;20225;-63
2023/07/18 11:02:00;;;;;;;0.30;0.20;;;28.80;99.20;29.20;101857.00;;;;5049819;28;20735;-63
2023/07/18 11:04:28;;;;;;;0.10;0.10;;;28.30;97.40;30.80;101834.00;;;;5044087;28;20247;-62
2023/07/18 11:06:59;;;;;;;0.10;0.10;;;28.10;98.40;31.70;101838.00;;;;5046722;28;20648;-62
2023/07/18 11:09:25;;;;;;;0.10;0.10;;;28.30;98.40;29.20;101852.00;;;;5049893;28;20206;-64
2023/07/18 11:11:57;;;;;;;0.10;0.10;;;27.30;98.20;30.80;101840.00;;;;5029957;28;20209;-63
2023/07/18 11:14:43;;;;;;;0.10;0.10;;;28.00;97.70;33.50;101839.00;;;;5041235;28;20641;-63
2023/07/18 11:17:25;;;;;;;0.10;0.10;;;29.40;96.70;34.30;101821.00;;;;5049367;28;20236;-64
2023/07/18 11:19:59;;;;;;;0.10;0.10;;;30.60;95.80;31.80;101829.00;;;;5061291;28;20324;-64
2023/07/18 11:22:29;;;;;;;0.10;0.10;;;30.70;93.90;34.20;101819.00;;;;5047977;28;20556;-64
2023/07/18 11:24:55;;;;;;;0.52;0.50;;;30.80;94.00;34.10;101793.00;;;;5046833;28;20194;-64
2023/07/18 11:27:29;;;;;;;0.10;0.10;;;31.20;93.70;33.90;101793.00;;;;5042558;28;20257;-64
2023/07/18 11:30:05;;;;;;;0.15;0.15;;;31.20;93.00;32.70;101822.00;;;;5039600;28;20209;-64
2023/07/18 11:32:47;;;;;;;0.30;0.30;;;30.50;91.60;34.10;101817.00;;;;5064392;28;20222;-65
2023/07/18 11:35:22;;;;;;;0.10;0.10;;;31.20;87.70;31.50;101829.00;;;;5049085;28;20186;-64
2023/07/18 11:37:52;;;;;;;0.10;0.10;;;29.80;85.90;30.10;101829.00;;;;5047739;28;20182;-64
2023/07/18 11:40:30;;;;;;;0.57;0.30;;;28.40;87.30;31.30;101820.00;;;;5047132;28;20225;-64
2023/07/18 11:43:01;;;;;;;0.20;0.20;;;29.40;85.70;31.50;101816.00;;;;5044435;28;20183;-64
2023/07/18 11:45:31;;;;;;;0.10;0.10;;;29.30;83.60;28.40;101837.00;;;;5035384;28;20190;-64
2023/07/18 11:47:59;;;;;;;0.10;0.10;;;27.60;86.90;28.70;101832.00;;;;5029942;28;20183;-65
2023/07/18 11:50:29;;;;;;;0.10;0.10;;;27.30;86.80;29.10;101820.00;;;;5029826;28;20190;-64
2023/07/18 11:52:58;;;;;;;0.10;0.10;;;26.90;89.10;31.20;101785.00;;;;5034078;28;20711;-64
2023/07/18 11:55:44;;;;;;;0.10;0.10;;;28.20;90.20;30.10;101809.00;;;;5034132;28;20187;-64
2023/07/18 11:58:13;;;;;;;0.10;0.10;;;27.70;90.50;31.60;101797.00;;;;5033485;28;20184;-64
2023/07/18 12:01:06;;;;;;;0.10;0.10;;;28.20;90.80;32.00;101792.00;;;;5036269;28;20190;-64
2023/07/18 12:04:32;;;;;;;0.17;0.17;;;28.50;90.10;31.40;101787.00;;;;5036128;28;20186;-64
2023/07/18 12:06:58;;;;;;;0.10;0.10;;;28.30;89.20;31.00;101771.00;;;;5031452;28;20182;-64
2023/07/18 12:09:24;;;;;;;0.17;0.17;;;27.80;90.30;29.20;101791.00;;;;5035040;28;20191;-65
2023/07/18 12:11:50;;;;;;;0.10;0.10;;;27.10;90.10;28.20;101794.00;;;;5035321;28;20264;-64
2023/07/18 12:14:24;;;;;;;0.10;0.10;;;26.40;89.80;30.10;101771.00;;;;5034155;28;20239;-65
2023/07/18 12:16:51;;;;;;;0.10;0.10;;;26.70;90.10;29.00;101774.00;;;;5034036;28;20175;-65
2023/07/18 12:19:20;;;;;;;0.68;0.17;;;26.70;89.80;29.90;101765.00;;;;5033119;28;20256;-64
2023/07/18 12:22:08;;;;;;;0.10;0.10;;;26.90;89.60;29.10;101767.00;;;;5034024;28;20692;-64
2023/07/18 12:24:34;;;;;;;0.20;0.20;;;26.40;90.40;29.10;101763.00;;;;5020597;28;20179;-64
2023/07/18 12:27:00;;;;;;;0.10;0.10;;;26.40;90.70;29.00;101769.00;;;;5017307;28;20272;-64
2023/07/18 12:29:25;;;;;;;0.47;0.20;;;26.20;90.60;29.30;101743.00;;;;5033929;28;20273;-65
2023/07/18 12:32:11;;;;;;;0.75;0.63;;;26.60;89.40;27.70;101741.00;;;;5034983;28;20688;-64
2023/07/18 12:35:15;;;;;;;0.10;0.10;;;25.60;89.40;27.20;101759.00;;;;5024209;28;20190;-66
2023/07/18 12:37:44;;;;;;;0.35;0.20;;;25.00;89.20;28.40;101743.00;;;;5023139;28;20186;-64
2023/07/18 12:40:19;;;;;;;0.10;0.10;;;25.60;90.30;29.30;101738.00;;;;5040933;28;20191;-64
2023/07/18 12:42:48;;;;;;;0.10;0.10;;;25.80;90.70;30.20;101716.00;;;;5034918;28;20233;-65
2023/07/18 12:45:18;;;;;;;0.20;0.20;;;26.70;90.60;29.00;101730.00;;;;5033559;28;20227;-64
2023/07/18 12:47:44;;;;;;;0.10;0.10;;;26.60;90.00;29.30;101701.00;;;;5019998;28;20596;-64
2023/07/18 12:50:11;;;;;;;0.28;0.28;;;26.30;90.70;29.50;101725.00;;;;5034426;28;20191;-65
2023/07/18 12:52:57;;;;;;;0.10;0.10;;;26.40;90.90;30.50;101694.00;;;;5033592;28;20219;-65
2023/07/18 12:55:23;;;;;;;0.10;0.10;;;26.80;90.80;30.40;101712.00;;;;5023069;28;20621;-65
2023/07/18 12:57:49;;;;;;;0.20;0.20;;;27.00;90.40;28.80;101696.00;;;;5032619;28;20229;-64
2023/07/18 13:00:29;;;;;;;0.10;0.10;;;26.20;90.80;29.70;101719.00;;;;5034466;28;20183;-64
2023/07/18 13:02:55;;;;;;;0.10;0.10;;;26.30;90.00;30.10;101710.00;;;;5034466;28;20389;-65
2023/07/18 13:05:41;;;;;;;0.40;0.40;;;26.50;90.10;29.60;101716.00;;;;5034409;28;20284;-65
2023/07/18 13:08:37;;;;;;;0.30;0.30;;;26.70;90.10;29.40;101717.00;;;;5034180;28;20186;-64
2023/07/18 13:11:23;;;;;;;0.45;0.40;;;26.30;90.30;28.10;101713.00;;;;5031111;28;20190;-64
2023/07/18 13:14:16;;;;;;;0.65;0.35;;;26.00;89.70;29.20;101710.00;;;;5028296;28;20187;-64
2023/07/18 13:17:17;;;;;;;0.10;0.10;;;26.30;90.30;28.70;101712.00;;;;5020556;28;20187;-65
2023/07/18 13:20:00;;;;;;;0.43;0.43;;;26.40;90.70;29.10;101708.00;;;;5028771;28;20183;-64
2023/07/18 13:22:44;;;;;;;0.13;0.13;;;26.40;90.70;28.40;101719.00;;;;5029378;28;20221;-64
2023/07/18 13:25:48;;;;;;;0.10;0.10;;;26.00;90.60;29.50;101699.00;;;;5027482;28;20324;-64
2023/07/18 13:28:32;;;;;;;0.17;0.17;;;26.00;91.10;28.70;101688.00;;;;5014216;28;20182;-64
2023/07/18 13:31:18;;;;;;;0.40;0.40;;;26.10;91.40;29.10;101710.00;;;;5034217;28;20291;-64
2023/07/18 13:33:53;;;;;;;0.20;0.20;;;26.30;90.60;29.80;101694.00;;;;5023912;28;20206;-65
2023/07/18 13:36:19;;;;;;;0.10;0.10;;;26.50;90.80;28.10;101701.00;;;;5030627;28;20189;-64
2023/07/18 13:38:45;;;;;;;0.20;0.20;;;25.80;90.90;29.40;101697.00;;;;5029558;28;20199;-64
2023/07/18 13:41:11;;;;;;;0.13;0.13;;;26.00;91.50;27.90;101701.00;;;;5033573;28;20701;-65
2023/07/18 13:43:41;;;;;;;0.20;0.20;;;25.80;91.40;27.60;101687.00;;;;5033406;28;20179;-65
2023/07/18 13:46:08;;;;;;;0.13;0.13;;;25.70;91.10;27.50;101711.00;;;;5028521;28;20191;-65
2023/07/18 13:48:42;;;;;;;0.20;0.20;;;25.30;91.20;28.40;101695.00;;;;5032566;28;20213;-66
2023/07/18 13:51:08;;;;;;;0.20;0.20;;;25.40;91.30;29.60;101687.00;;;;5013580;28;20278;-66
2023/07/18 13:53:34;;;;;;;0.20;0.20;;;26.00;91.60;28.70;101692.00;;;;5041091;28;20261;-66
2023/07/18 13:56:01;;;;;;;0.10;0.10;;;25.90;91.50;29.80;101686.00;;;;5032307;28;20329;-66
2023/07/18 13:58:29;;;;;;;0.32;0.32;;;26.40;91.60;29.70;101659.00;;;;5028231;28;20202;-66
2023/07/18 14:00:59;;;;;;;0.57;0.57;;;26.70;90.80;28.30;101680.00;;;;5031662;28;20191;-66
2023/07/18 14:04:18;;;;;;;0.90;0.57;;;26.10;91.40;27.90;101675.00;;;;5029923;28;20198;-66
2023/07/18 14:07:36;;;;;;;0.32;0.32;;;25.60;91.60;28.20;101666.00;;;;5027147;28;20183;-66
2023/07/18 14:10:41;;;;;;;0.10;0.10;;;25.70;91.70;29.20;101666.00;;;;5032300;28;20182;-66
2023/07/18 14:13:35;;;;;;;0.10;0.10;;;26.10;91.60;28.20;101669.00;;;;5025565;28;20309;-66
2023/07/18 14:16:27;;;;;;;0.10;0.10;;;25.50;92.10;29.40;101652.00;;;;5029951;28;20196;-66
2023/07/18 14:19:16;;;;;;;1.02;0.40;;;26.00;92.20;28.80;101652.00;;;;5033092;28;20186;-66
2023/07/18 14:22:30;;;;;;;0.25;0.25;;;26.10;92.10;28.30;101635.00;;;;5016257;28;20199;-66
2023/07/18 14:25:15;;;;;;;0.30;0.30;;;26.00;93.10;29.30;101634.00;;;;5032161;28;20236;-66
2023/07/18 14:28:23;;;;;;;0.35;0.35;;;26.10;93.10;28.90;101634.00;;;;5031871;28;20193;-66
2023/07/18 14:31:14;;;;;;;0.65;0.65;;;26.20;92.40;28.90;101641.00;;;;5026659;28;20193;-66
2023/07/18 14:33:57;;;;;;;0.13;0.10;;;26.30;92.60;28.60;101633.00;;;;5033074;28;20662;-66
2023/07/18 14:36:37;;;;;;;0.10;0.10;;;26.00;92.50;28.60;101632.00;;;;5026404;28;20186;-66
2023/07/18 14:39:40;;;;;;;0.35;0.32;;;25.90;92.80;28.10;101634.00;;;;5028182;28;20568;-66
2023/07/18 14:42:16;;;;;;;0.10;0.10;;;25.80;92.50;28.70;101619.00;;;;5026439;28;20194;-66
2023/07/18 14:44:51;;;;;;;0.10;0.10;;;25.80;93.00;30.00;101606.00;;;;5031016;28;20637;-66
2023/07/18 14:47:23;;;;;;;0.68;0.60;;;26.20;93.30;30.20;101608.00;;;;5028047;28;20201;-66
2023/07/18 14:50:07;;;;;;;0.10;0.10;;;26.80;92.50;30.80;101617.00;;;;5027096;28;20192;-66
2023/07/18 14:52:53;;;;;;;0.10;0.10;;;27.00;92.60;30.70;101608.00;;;;5019360;28;20203;-66
2023/07/18 14:55:19;;;;;;;0.10;0.10;;;27.30;91.90;30.50;101599.00;;;;5062718;28;20233;-66
2023/07/18 14:57:52;;;;;;;0.10;0.10;;;27.20;92.70;29.80;101609.00;;;;5022768;28;20236;-66
2023/07/18 15:00:22;;;;;;;0.10;0.10;;;27.00;92.10;30.60;101601.00;;;;5038645;28;20614;-66
2023/07/18 15:02:48;;;;;;;0.10;0.10;;;27.10;92.40;30.40;101600.00;;;;5015318;28;20175;-66
2023/07/18 15:05:20;;;;;;;0.17;0.17;;;27.10;92.50;30.30;101599.00;;;;5031398;28;20190;-66
2023/07/18 15:07:50;;;;;;;0.10;0.10;;;27.10;92.50;30.40;101572.00;;;;5032322;28;20211;-66
2023/07/18 15:10:19;;;;;;;0.10;0.10;;;27.00;92.70;30.40;101603.00;;;;5022473;28;20187;-66
2023/07/18 15:12:50;;;;;;;0.10;0.10;;;27.10;92.90;30.80;101580.00;;;;5025732;28;20264;-66
2023/07/18 15:15:19;;;;;;;0.20;0.20;;;27.20;92.30;31.20;101571.00;;;;5030552;28;20186;-66
2023/07/18 15:18:03;;;;;;;0.10;0.10;;;27.40;92.00;30.30;101571.00;;;;5032531;28;20397;-66
2023/07/18 15:20:34;;;;;;;2.00;1.58;;;27.30;92.20;30.70;101573.00;;;;5029600;28;20194;-66
2023/07/18 15:23:03;;;;;;;0.10;0.10;;;27.30;91.90;29.80;101569.00;;;;5031831;28;20653;-66
2023/07/18 15:25:31;;;;;;;0.20;0.20;;;26.90;92.40;29.70;101578.00;;;;5036994;28;20187;-66
2023/07/18 15:27:59;;;;;;;0.13;0.13;;;26.90;92.20;28.50;101583.00;;;;5031428;28;20191;-66
2023/07/18 15:30:26;;;;;;;0.10;0.10;;;26.50;92.10;28.00;101576.00;;;;5029308;28;20187;-66
2023/07/18 15:32:54;;;;;;;0.73;0.47;;;25.90;92.60;28.40;101568.00;;;;5035454;28;20211;-66
2023/07/18 15:35:45;;;;;;;0.10;0.10;;;25.80;92.70;28.90;101558.00;;;;5034140;28;20190;-66
2023/07/18 15:38:52;;;;;;;0.20;0.20;;;26.00;92.90;29.80;101554.00;;;;5016016;28;20209;-66
2023/07/18 15:41:20;;;;;;;0.22;0.22;;;26.20;93.50;30.60;101545.00;;;;5046302;28;20190;-66
2023/07/18 15:43:46;;;;;;;0.10;0.10;;;26.80;93.00;30.50;101517.00;;;;5036068;28;20236;-66
2023/07/18 15:46:32;;;;;;;0.30;0.30;;;27.10;92.60;30.00;101514.00;;;;5034815;28;20630;-66
2023/07/18 15:48:58;;;;;;;0.10;0.10;;;26.70;92.50;30.30;101537.00;;;;5044926;28;20206;-66
2023/07/18 15:51:26;;;;;;;0.10;0.10;;;26.90;92.50;29.90;101537.00;;;;5034919;28;20183;-66
2023/07/18 15:53:52;;;;;;;0.10;0.10;;;26.70;92.80;30.20;101521.00;;;;5050962;28;20194;-66
2023/07/18 15:56:23;;;;;;;0.10;0.10;;;26.80;92.50;30.00;101534.00;;;;5025384;28;20194;-66
2023/07/18 15:58:49;;;;;;;1.23;1.23;;;26.70;92.50;29.30;101538.00;;;;5035646;28;20205;-67
2023/07/18 16:01:18;;;;;;;0.10;0.10;;;26.40;93.00;29.80;101536.00;;;;5033332;28;20178;-67
2023/07/18 16:03:46;;;;;;;0.10;0.10;;;26.40;93.40;30.40;101536.00;;;;5034277;28;20175;-66
2023/07/18 16:06:13;;;;;;;0.10;0.10;;;26.70;93.50;30.50;101519.00;;;;5024270;28;20191;-66
2023/07/18 16:08:43;;;;;;;0.10;0.10;;;26.90;93.40;30.90;101525.00;;;;5035717;28;20213;-67
2023/07/18 16:11:08;;;;;;;0.10;0.10;;;27.20;94.00;30.80;101520.00;;;;5027414;28;20187;-67
2023/07/18 16:13:35;;;;;;;0.10;0.10;;;27.30;92.80;31.10;101519.00;;;;5029653;28;20183;-66
2023/07/18 16:16:04;;;;;;;0.10;0.10;;;27.40;93.00;29.90;101516.00;;;;5035011;28;20175;-66
2023/07/18 16:18:32;;;;;;;0.10;0.10;;;27.00;92.80;30.00;101518.00;;;;5035183;28;20198;-66
2023/07/18 16:20:58;;;;;;;0.10;0.10;;;26.90;93.40;30.70;101517.00;;;;5047049;28;20278;-66
2023/07/18 16:23:24;;;;;;;0.10;0.10;;;27.10;93.60;30.80;101520.00;;;;5031321;28;20270;-66
2023/07/18 16:25:50;;;;;;;0.10;0.10;;;27.20;93.50;31.10;101505.00;;;;5029914;28;20629;-66
2023/07/18 16:28:23;;;;;;;0.10;0.10;;;27.40;93.50;30.90;101513.00;;;;5033960;28;20189;-66
2023/07/18 16:30:49;;;;;;;0.30;0.30;;;27.50;93.10;30.50;101513.00;;;;5030677;28;20190;-66
2023/07/18 16:33:17;;;;;;;0.17;0.17;;;27.20;93.10;29.50;101519.00;;;;5024087;28;20219;-66
2023/07/18 16:35:44;;;;;;;0.55;0.55;;;27.00;93.90;29.90;101511.00;;;;5026407;28;20653;-66
2023/07/18 16:38:12;;;;;;;0.10;0.10;;;26.70;93.50;29.40;101508.00;;;;5033427;28;20183;-66
2023/07/18 16:40:41;;;;;;;0.10;0.10;;;26.50;93.50;29.50;101520.00;;;;5033473;28;20192;-67
2023/07/18 16:43:07;;;;;;;0.10;0.10;;;26.40;93.50;29.50;101513.00;;;;5017583;28;20182;-66
2023/07/18 16:45:38;;;;;;;0.10;0.10;;;26.20;93.90;30.30;101514.00;;;;5034729;28;20517;-66
2023/07/18 16:48:05;;;;;;;0.52;0.20;;;26.50;93.90;29.10;101497.00;;;;5042246;28;20187;-66
2023/07/18 16:50:32;;;;;;;1.25;0.85;;;26.20;93.80;28.80;101521.00;;;;5033783;28;20225;-66
2023/07/18 16:53:02;;;;;;;0.10;0.10;;;26.00;94.10;28.80;101519.00;;;;5033484;28;20699;-66
2023/07/18 16:55:29;;;;;;;0.10;0.10;;;25.90;94.40;29.70;101516.00;;;;5034609;28;20183;-66
2023/07/18 16:57:57;;;;;;;0.75;0.75;;;26.20;94.60;30.00;101518.00;;;;5028533;28;20206;-67
2023/07/18 17:00:23;;;;;;;0.10;0.10;;;26.50;94.00;29.10;101522.00;;;;5025934;28;20516;-66
2023/07/18 17:02:51;;;;;;;0.10;0.10;;;26.20;94.00;30.30;101514.00;;;;5034533;28;20183;-67
2023/07/18 17:05:18;;;;;;;11.88;8.77;;;26.60;95.30;29.30;101526.00;;;;5032505;28;20713;-66
2023/07/18 17:07:43;;;;;;;0.35;0.25;;;26.40;97.60;29.50;101528.00;;;;5033527;28;20737;-67
2023/07/18 17:10:14;;;;;;;0.22;0.22;;;26.50;98.70;28.50;101527.00;;;;5044179;28;20266;-67
2023/07/18 17:12:40;;;;;;;0.10;0.10;;;26.20;99.10;27.90;101540.00;;;;5032983;28;20739;-66
2023/07/18 17:15:12;;;;;;;0.32;0.32;;;25.80;99.90;28.20;101529.00;;;;5034429;28;20178;-66
2023/07/18 17:17:46;;;;;;;1.73;0.63;;;25.60;99.90;28.50;101528.00;;;;5033550;28;20206;-66
2023/07/18 17:20:12;;;;;;;0.40;0.25;;;25.60;99.90;28.50;101520.00;;;;5032827;28;20182;-66
2023/07/18 17:22:41;;;;;;;9.63;1.05;;;25.50;99.90;27.10;101511.00;;;;5029581;28;20202;-66
2023/07/18 17:25:12;;;;;;;0.15;0.15;;;25.20;99.90;28.20;101511.00;;;;5029879;28;20325;-66
2023/07/18 17:27:43;;;;;;;1.00;0.40;;;25.20;99.90;28.00;101517.00;;;;5025685;28;20187;-66
2023/07/18 17:30:14;;;;;;;0.13;0.13;;;25.50;99.90;27.50;101517.00;;;;5032457;28;20183;-66
2023/07/18 17:32:39;;;;;;;0.85;0.30;;;25.00;99.90;27.70;101505.00;;;;5032438;28;20207;-66
2023/07/18 17:35:13;;;;;;;0.20;0.20;;;25.00;99.90;27.50;101534.00;;;;5033364;28;20186;-66
2023/07/18 17:37:51;;;;;;;0.40;0.40;;;25.00;99.90;26.80;101534.00;;;;5033858;28;20217;-66
2023/07/18 17:40:20;;;;;;;0.30;0.30;;;24.70;99.90;27.30;101538.00;;;;5029370;28;20666;-66
2023/07/18 17:42:54;;;;;;;0.10;0.10;;;24.60;99.90;27.50;101545.00;;;;5064301;28;20198;-66
2023/07/18 17:45:28;;;;;;;0.13;0.13;;;24.60;99.90;26.70;101549.00;;;;5006272;28;20190;-66
2023/07/18 17:48:04;;;;;;;0.40;0.40;;;24.40;99.90;26.30;101548.00;;;;5032424;28;20672;-66
2023/07/18 17:50:33;;;;;;;0.10;0.10;;;24.00;99.90;26.40;101555.00;;;;5031297;28;20193;-66
2023/07/18 17:53:30;;;;;;;0.20;0.20;;;23.90;99.90;26.00;101538.00;;;;5030546;28;20202;-66
2023/07/18 17:56:00;;;;;;;0.28;0.28;;;23.90;99.90;26.50;101573.00;;;;5033099;28;20183;-66
2023/07/18 17:58:46;;;;;;;0.40;0.40;;;24.00;99.90;26.00;101567.00;;;;5032129;28;20187;-66
2023/07/18 18:01:12;;;;;;;0.25;0.22;;;23.80;99.90;26.90;101539.00;;;;5031659;28;20195;-66
2023/07/18 18:04:18;;;;;;;5.07;2.08;;;23.90;99.90;26.70;101547.00;;;;5032980;28;20201;-67
2023/07/18 18:07:04;;;;;;;0.30;0.20;;;24.00;99.90;27.00;101545.00;;;;5046265;28;20182;-66
2023/07/18 18:09:33;;;;;;;0.63;0.32;;;24.20;99.90;26.80;101553.00;;;;5024803;28;20226;-66
2023/07/18 18:12:04;;;;;;;0.10;0.10;;;24.10;99.90;26.60;101557.00;;;;5030189;28;20214;-66
2023/07/18 18:14:49;;;;;;;0.20;0.20;;;24.00;99.90;25.20;101564.00;;;;5031843;28;20175;-66
2023/07/18 18:17:26;;;;;;;0.15;0.15;;;23.50;99.90;25.60;101554.00;;;;5031478;28;20217;-66
2023/07/18 18:20:04;;;;;;;0.10;0.10;;;23.20;99.90;26.30;101546.00;;;;5030850;28;20186;-66
2023/07/18 18:22:50;;;;;;;0.20;0.20;;;23.40;99.90;26.40;101545.00;;;;5033778;28;20555;-66
2023/07/18 18:25:29;;;;;;;0.17;0.17;;;23.70;99.90;26.10;101551.00;;;;5024581;28;20711;-66
2023/07/18 18:27:55;;;;;;;0.10;0.10;;;23.40;99.90;26.40;101547.00;;;;5031751;28;20210;-66
2023/07/18 18:30:31;;;;;;;0.20;0.20;;;23.50;99.90;26.10;101539.00;;;;5032503;28;20193;-66
2023/07/18 18:33:08;;;;;;;0.20;0.20;;;23.40;99.90;26.40;101539.00;;;;5027236;28;20230;-66